PWSweather.com
Personal Weather Stations
Station Observations
KPASPRIN10
East Vincent, East Vincent, PA 19475

East VincentEast Vincent, PA 19475

Lat: 40.170948, Lon: -75.629681

Elevation: 404

Station Type: Davis VP2

http://www.evweather.com

High Low Average
Temperature 44.0°F6.7°C 25.4°F-3.7°C 33.6°F0.9°C
Dew Point 27.2°F-2.7°C 17.6°F-8.0°C 21.7°F-5.7°C
Winds 10.4 mph 16.7 kmh Calm Calm 4.0 mph WSW6.4 kmh WSW
Wind Gusts 12.7 mph20.4 kmh 1.2 mph1.9 kmh 6.0 mph9.7 kmh
Humidity 73% 47% 62%
Pressure 30.13 in1020.3 mb 30.04 in1017.3 mb -
Precipitation 0.00 in0.0 mm - -
Hour Temp Dew Point Humidity Winds Wind Gusts Pressure Precip Precip Rate Daily Precip Total
12:00 AM 29.7°F-1.3°C 19.7°F-6.8°C 66% 1.2 mph W1.9 kmh W 2.3 mph3.7 kmh 30.05 in1017.6 mb - 0.00 in0.0 mm 0.00 in0.0 mm
12:10 AM 29.0°F-1.7°C 19.4°F-7.0°C 67% 2.3 mph W3.7 kmh W 3.5 mph5.6 kmh 30.05 in1017.6 mb - 0.00 in0.0 mm 0.00 in0.0 mm
12:20 AM 28.8°F-1.8°C 19.2°F-7.1°C 67% 2.3 mph WSW3.7 kmh WSW 3.5 mph5.6 kmh 30.05 in1017.6 mb - 0.00 in0.0 mm 0.00 in0.0 mm
12:30 AM 29.0°F-1.7°C 19.4°F-7.0°C 67% 2.3 mph WSW3.7 kmh WSW 3.5 mph5.6 kmh 30.05 in1017.6 mb - 0.00 in0.0 mm 0.00 in0.0 mm
12:40 AM 28.8°F-1.8°C 19.9°F-6.7°C 69% 3.5 mph W5.6 kmh W 3.5 mph5.6 kmh 30.05 in1017.6 mb - 0.00 in0.0 mm 0.00 in0.0 mm
12:50 AM 28.5°F-1.9°C 19.3°F-7.1°C 68% 2.3 mph W3.7 kmh W 3.5 mph5.6 kmh 30.05 in1017.6 mb - 0.00 in0.0 mm 0.00 in0.0 mm
01:00 AM 28.7°F-1.8°C 19.5°F-6.9°C 68% 2.3 mph W3.7 kmh W 3.5 mph5.6 kmh 30.05 in1017.6 mb - 0.00 in0.0 mm 0.00 in0.0 mm
01:10 AM 29.0°F-1.7°C 19.4°F-7.0°C 67% 3.5 mph W5.6 kmh W 3.5 mph5.6 kmh 30.05 in1017.6 mb - 0.00 in0.0 mm 0.00 in0.0 mm
01:20 AM 29.4°F-1.4°C 19.5°F-6.9°C 66% 5.8 mph NW9.3 kmh NW 9.2 mph14.8 kmh 30.05 in1017.6 mb - 0.00 in0.0 mm 0.00 in0.0 mm
01:30 AM 30.1°F-1.1°C 19.4°F-7.0°C 64% 5.8 mph NW9.3 kmh NW 8.1 mph13.0 kmh 30.05 in1017.6 mb - 0.00 in0.0 mm 0.00 in0.0 mm
01:40 AM 30.5°F-0.8°C 19.8°F-6.8°C 64% 4.6 mph NW7.4 kmh NW 9.2 mph14.8 kmh 30.05 in1017.6 mb - 0.00 in0.0 mm 0.00 in0.0 mm
01:50 AM 30.5°F-0.8°C 19.8°F-6.8°C 64% 4.6 mph NW7.4 kmh NW 6.9 mph11.1 kmh 30.05 in1017.6 mb - 0.00 in0.0 mm 0.00 in0.0 mm
02:00 AM 30.4°F-0.9°C 19.7°F-6.8°C 64% 3.5 mph NW5.6 kmh NW 6.9 mph11.1 kmh 30.06 in1017.9 mb - 0.00 in0.0 mm 0.00 in0.0 mm
02:10 AM 30.2°F-1.0°C 19.5°F-6.9°C 64% 2.3 mph WNW3.7 kmh WNW 3.5 mph5.6 kmh 30.06 in1017.9 mb - 0.00 in0.0 mm 0.00 in0.0 mm
02:20 AM 30.1°F-1.1°C 19.4°F-7.0°C 64% 4.6 mph NW7.4 kmh NW 6.9 mph11.1 kmh 30.05 in1017.6 mb - 0.00 in0.0 mm 0.00 in0.0 mm
02:30 AM 30.0°F-1.1°C 19.3°F-7.1°C 64% 3.5 mph WNW5.6 kmh WNW 3.5 mph5.6 kmh 30.06 in1017.9 mb - 0.00 in0.0 mm 0.00 in0.0 mm
02:40 AM 29.7°F-1.3°C 19.7°F-6.8°C 66% 2.3 mph W3.7 kmh W 3.5 mph5.6 kmh 30.06 in1017.9 mb - 0.00 in0.0 mm 0.00 in0.0 mm
02:50 AM 29.5°F-1.4°C 19.2°F-7.1°C 65% 3.5 mph WNW5.6 kmh WNW 6.9 mph11.1 kmh 30.07 in1018.3 mb - 0.00 in0.0 mm 0.00 in0.0 mm
03:00 AM 29.5°F-1.4°C 19.2°F-7.1°C 65% 3.5 mph W5.6 kmh W 3.5 mph5.6 kmh 30.07 in1018.3 mb - 0.00 in0.0 mm 0.00 in0.0 mm
03:10 AM 29.4°F-1.4°C 19.1°F-7.2°C 65% 3.5 mph W5.6 kmh W 3.5 mph5.6 kmh 30.07 in1018.3 mb - 0.00 in0.0 mm 0.00 in0.0 mm
03:20 AM 29.2°F-1.6°C 18.6°F-7.4°C 64% 2.3 mph W3.7 kmh W 3.5 mph5.6 kmh 30.07 in1018.3 mb - 0.00 in0.0 mm 0.00 in0.0 mm
03:30 AM 28.9°F-1.7°C 18.3°F-7.6°C 64% 3.5 mph WSW5.6 kmh WSW 3.5 mph5.6 kmh 30.07 in1018.3 mb - 0.00 in0.0 mm 0.00 in0.0 mm
03:40 AM 28.7°F-1.8°C 18.4°F-7.6°C 65% 2.3 mph WSW3.7 kmh WSW 6.9 mph11.1 kmh 30.07 in1018.3 mb - 0.00 in0.0 mm 0.00 in0.0 mm
03:50 AM 28.0°F-2.2°C 18.8°F-7.3°C 68% 3.5 mph W5.6 kmh W 3.5 mph5.6 kmh 30.07 in1018.3 mb - 0.00 in0.0 mm 0.00 in0.0 mm
04:00 AM 27.5°F-2.5°C 18.7°F-7.4°C 69% 3.5 mph WSW5.6 kmh WSW 3.5 mph5.6 kmh 30.07 in1018.3 mb - 0.00 in0.0 mm 0.00 in0.0 mm
04:10 AM 27.6°F-2.4°C 18.8°F-7.3°C 69% 5.8 mph W9.3 kmh W 6.9 mph11.1 kmh 30.07 in1018.3 mb - 0.00 in0.0 mm 0.00 in0.0 mm
04:20 AM 27.9°F-2.3°C 18.7°F-7.4°C 68% 4.6 mph W7.4 kmh W 5.8 mph9.3 kmh 30.07 in1018.3 mb - 0.00 in0.0 mm 0.00 in0.0 mm
04:30 AM 28.3°F-2.1°C 18.7°F-7.4°C 67% 3.5 mph WNW5.6 kmh WNW 6.9 mph11.1 kmh 30.07 in1018.3 mb - 0.00 in0.0 mm 0.00 in0.0 mm
04:40 AM 28.3°F-2.1°C 18.7°F-7.4°C 67% 2.3 mph NW3.7 kmh NW 3.5 mph5.6 kmh 30.07 in1018.3 mb - 0.00 in0.0 mm 0.00 in0.0 mm
04:50 AM 28.1°F-2.2°C 18.6°F-7.4°C 67% 2.3 mph W3.7 kmh W 3.5 mph5.6 kmh 30.07 in1018.3 mb - 0.00 in0.0 mm 0.00 in0.0 mm
05:00 AM 27.9°F-2.3°C 18.0°F-7.8°C 66% 3.5 mph SW5.6 kmh SW 4.6 mph7.4 kmh 30.07 in1018.3 mb - 0.00 in0.0 mm 0.00 in0.0 mm
05:10 AM 27.0°F-2.8°C 18.2°F-7.7°C 69% 3.5 mph SW5.6 kmh SW 3.5 mph5.6 kmh 30.08 in1018.6 mb - 0.00 in0.0 mm 0.00 in0.0 mm
05:20 AM 26.2°F-3.2°C 18.1°F-7.7°C 71% 2.3 mph WNW3.7 kmh WNW 3.5 mph5.6 kmh 30.08 in1018.6 mb - 0.00 in0.0 mm 0.00 in0.0 mm
05:30 AM 25.9°F-3.4°C 17.8°F-7.9°C 71% 2.3 mph W3.7 kmh W 5.8 mph9.3 kmh 30.08 in1018.6 mb - 0.00 in0.0 mm 0.00 in0.0 mm
05:40 AM 26.1°F-3.3°C 17.6°F-8.0°C 70% 2.3 mph WNW3.7 kmh WNW 3.5 mph5.6 kmh 30.08 in1018.6 mb - 0.00 in0.0 mm 0.00 in0.0 mm
05:50 AM 25.9°F-3.4°C 17.8°F-7.9°C 71% 3.5 mph WSW5.6 kmh WSW 3.5 mph5.6 kmh 30.09 in1019.0 mb - 0.00 in0.0 mm 0.00 in0.0 mm
06:00 AM 25.6°F-3.6°C 17.8°F-7.9°C 72% 4.6 mph WSW7.4 kmh WSW 5.8 mph9.3 kmh 30.08 in1018.6 mb - 0.00 in0.0 mm 0.00 in0.0 mm
06:10 AM 25.4°F-3.7°C 17.9°F-7.8°C 73% 3.5 mph W5.6 kmh W 3.5 mph5.6 kmh 30.09 in1019.0 mb - 0.00 in0.0 mm 0.00 in0.0 mm
06:20 AM 25.6°F-3.6°C 17.8°F-7.9°C 72% 3.5 mph W5.6 kmh W 3.5 mph5.6 kmh 30.09 in1019.0 mb - 0.00 in0.0 mm 0.00 in0.0 mm
06:30 AM 25.7°F-3.5°C 17.9°F-7.8°C 72% 3.5 mph W5.6 kmh W 3.5 mph5.6 kmh 30.09 in1019.0 mb - 0.00 in0.0 mm 0.00 in0.0 mm
06:40 AM 25.8°F-3.4°C 17.7°F-7.9°C 71% 3.5 mph W5.6 kmh W 3.5 mph5.6 kmh 30.09 in1019.0 mb - 0.00 in0.0 mm 0.00 in0.0 mm
06:50 AM 26.0°F-3.3°C 17.9°F-7.8°C 71% 2.3 mph WSW3.7 kmh WSW 3.5 mph5.6 kmh 30.10 in1019.3 mb - 0.00 in0.0 mm 0.00 in0.0 mm
07:00 AM 26.0°F-3.3°C 17.6°F-8.0°C 70% 2.3 mph W3.7 kmh W 3.5 mph5.6 kmh 30.10 in1019.3 mb - 0.00 in0.0 mm 0.00 in0.0 mm
07:10 AM 25.8°F-3.4°C 18.0°F-7.8°C 72% 3.5 mph W5.6 kmh W 5.8 mph9.3 kmh 30.10 in1019.3 mb - 0.00 in0.0 mm 0.00 in0.0 mm
07:20 AM 25.4°F-3.7°C 17.6°F-8.0°C 72% 3.5 mph W5.6 kmh W 5.8 mph9.3 kmh 30.09 in1019.0 mb - 0.00 in0.0 mm 0.00 in0.0 mm
07:30 AM 25.7°F-3.5°C 17.6°F-8.0°C 71% 5.8 mph WNW9.3 kmh WNW 8.1 mph13.0 kmh 30.09 in1019.0 mb - 0.00 in0.0 mm 0.00 in0.0 mm
07:40 AM 26.8°F-2.9°C 17.6°F-8.0°C 68% 4.6 mph NW7.4 kmh NW 8.1 mph13.0 kmh 30.10 in1019.3 mb - 0.00 in0.0 mm 0.00 in0.0 mm
07:50 AM 27.7°F-2.4°C 17.8°F-7.9°C 66% 4.6 mph WNW7.4 kmh WNW 4.6 mph7.4 kmh 30.10 in1019.3 mb - 0.00 in0.0 mm 0.00 in0.0 mm
08:00 AM 28.4°F-2.0°C 18.1°F-7.7°C 65% 4.6 mph WNW7.4 kmh WNW 5.8 mph9.3 kmh 30.10 in1019.3 mb - 0.00 in0.0 mm 0.00 in0.0 mm
08:10 AM 29.1°F-1.6°C 18.1°F-7.7°C 63% 6.9 mph NW11.1 kmh NW 9.2 mph14.8 kmh 30.10 in1019.3 mb - 0.00 in0.0 mm 0.00 in0.0 mm
08:20 AM 29.6°F-1.3°C 18.5°F-7.5°C 63% 4.6 mph WNW7.4 kmh WNW 6.9 mph11.1 kmh 30.10 in1019.3 mb - 0.00 in0.0 mm 0.00 in0.0 mm
08:30 AM 30.1°F-1.1°C 18.6°F-7.4°C 62% 5.8 mph NW9.3 kmh NW 9.2 mph14.8 kmh 30.10 in1019.3 mb - 0.00 in0.0 mm 0.00 in0.0 mm
08:40 AM 30.7°F-0.7°C 18.8°F-7.3°C 61% 9.2 mph NW14.8 kmh NW 11.5 mph18.5 kmh 30.11 in1019.6 mb - 0.00 in0.0 mm 0.00 in0.0 mm
08:50 AM 31.2°F-0.4°C 18.9°F-7.3°C 60% 4.6 mph NW7.4 kmh NW 6.9 mph11.1 kmh 30.11 in1019.6 mb - 0.00 in0.0 mm 0.00 in0.0 mm
09:00 AM 31.7°F-0.2°C 19.0°F-7.2°C 59% 9.2 mph NW14.8 kmh NW 9.2 mph14.8 kmh 30.11 in1019.6 mb - 0.00 in0.0 mm 0.00 in0.0 mm
09:10 AM 32.1°F0.1°C 19.8°F-6.8°C 60% 5.8 mph WNW9.3 kmh WNW 6.9 mph11.1 kmh 30.12 in1020.0 mb - 0.00 in0.0 mm 0.00 in0.0 mm
09:20 AM 32.7°F0.4°C 20.3°F-6.5°C 60% 4.6 mph WNW7.4 kmh WNW 11.5 mph18.5 kmh 30.13 in1020.3 mb - 0.00 in0.0 mm 0.00 in0.0 mm
09:30 AM 33.1°F0.6°C 19.9°F-6.7°C 58% 4.6 mph NW7.4 kmh NW 8.1 mph13.0 kmh 30.12 in1020.0 mb - 0.00 in0.0 mm 0.00 in0.0 mm
09:40 AM 33.4°F0.8°C 20.2°F-6.6°C 58% 6.9 mph WNW11.1 kmh WNW 9.2 mph14.8 kmh 30.12 in1020.0 mb - 0.00 in0.0 mm 0.00 in0.0 mm
09:50 AM 33.6°F0.9°C 20.8°F-6.2°C 59% 5.8 mph NW9.3 kmh NW 9.2 mph14.8 kmh 30.12 in1020.0 mb - 0.00 in0.0 mm 0.00 in0.0 mm
10:00 AM 34.2°F1.2°C 20.9°F-6.2°C 58% 5.8 mph WNW9.3 kmh WNW 8.1 mph13.0 kmh 30.12 in1020.0 mb - 0.00 in0.0 mm 0.00 in0.0 mm
10:10 AM 34.5°F1.4°C 21.7°F-5.7°C 59% 5.8 mph NW9.3 kmh NW 10.4 mph16.7 kmh 30.12 in1020.0 mb - 0.00 in0.0 mm 0.00 in0.0 mm
10:20 AM 34.7°F1.5°C 21.4°F-5.9°C 58% 8.1 mph NW13.0 kmh NW 9.2 mph14.8 kmh 30.12 in1020.0 mb - 0.00 in0.0 mm 0.00 in0.0 mm
10:30 AM 34.7°F1.5°C 21.8°F-5.7°C 59% 5.8 mph NW9.3 kmh NW 5.8 mph9.3 kmh 30.11 in1019.6 mb - 0.00 in0.0 mm 0.00 in0.0 mm
10:40 AM 35.0°F1.7°C 21.3°F-5.9°C 57% 3.5 mph WNW5.6 kmh WNW 5.8 mph9.3 kmh 30.11 in1019.6 mb - 0.00 in0.0 mm 0.00 in0.0 mm
10:50 AM 35.2°F1.8°C 22.3°F-5.4°C 59% 8.1 mph NW13.0 kmh NW 9.2 mph14.8 kmh 30.11 in1019.6 mb - 0.00 in0.0 mm 0.00 in0.0 mm
11:00 AM 35.5°F1.9°C 22.2°F-5.4°C 58% 9.2 mph NW14.8 kmh NW 11.5 mph18.5 kmh 30.11 in1019.6 mb - 0.00 in0.0 mm 0.00 in0.0 mm
11:10 AM 35.9°F2.2°C 23.0°F-5.0°C 59% 8.1 mph WNW13.0 kmh WNW 9.2 mph14.8 kmh 30.11 in1019.6 mb - 0.00 in0.0 mm 0.00 in0.0 mm
11:20 AM 36.0°F2.2°C 22.6°F-5.2°C 58% 10.4 mph NW16.7 kmh NW 11.5 mph18.5 kmh 30.11 in1019.6 mb - 0.00 in0.0 mm 0.00 in0.0 mm
11:30 AM 36.4°F2.4°C 23.0°F-5.0°C 58% 6.9 mph NW11.1 kmh NW 11.5 mph18.5 kmh 30.11 in1019.6 mb - 0.00 in0.0 mm 0.00 in0.0 mm
11:40 AM 36.6°F2.6°C 22.8°F-5.1°C 57% 5.8 mph W9.3 kmh W 9.2 mph14.8 kmh 30.11 in1019.6 mb - 0.00 in0.0 mm 0.00 in0.0 mm
11:50 AM 36.8°F2.7°C 23.0°F-5.0°C 57% 5.8 mph NW9.3 kmh NW 6.9 mph11.1 kmh 30.11 in1019.6 mb - 0.00 in0.0 mm 0.00 in0.0 mm
12:00 PM 37.2°F2.9°C 23.8°F-4.6°C 58% 8.1 mph N13.0 kmh N 12.7 mph20.4 kmh 30.10 in1019.3 mb - 0.00 in0.0 mm 0.00 in0.0 mm
12:10 PM 37.7°F3.2°C 24.2°F-4.3°C 58% 3.5 mph N5.6 kmh N 4.6 mph7.4 kmh 30.11 in1019.6 mb - 0.00 in0.0 mm 0.00 in0.0 mm
12:20 PM 37.9°F3.3°C 24.4°F-4.2°C 58% 5.8 mph WNW9.3 kmh WNW 6.9 mph11.1 kmh 30.10 in1019.3 mb - 0.00 in0.0 mm 0.00 in0.0 mm
12:30 PM 38.4°F3.6°C 24.5°F-4.2°C 57% 5.8 mph NW9.3 kmh NW 8.1 mph13.0 kmh 30.10 in1019.3 mb - 0.00 in0.0 mm 0.00 in0.0 mm
12:40 PM 38.5°F3.6°C 24.6°F-4.1°C 57% 6.9 mph N11.1 kmh N 9.2 mph14.8 kmh 30.10 in1019.3 mb - 0.00 in0.0 mm 0.00 in0.0 mm
12:50 PM 38.7°F3.7°C 24.3°F-4.3°C 56% 3.5 mph NW5.6 kmh NW 8.1 mph13.0 kmh 30.09 in1019.0 mb - 0.00 in0.0 mm 0.00 in0.0 mm
01:00 PM 39.1°F3.9°C 24.7°F-4.1°C 56% 2.3 mph W3.7 kmh W 3.5 mph5.6 kmh 30.09 in1019.0 mb - 0.00 in0.0 mm 0.00 in0.0 mm
01:10 PM 39.3°F4.1°C 25.3°F-3.7°C 57% 9.2 mph NW14.8 kmh NW 12.7 mph20.4 kmh 30.09 in1019.0 mb - 0.00 in0.0 mm 0.00 in0.0 mm
01:20 PM 39.3°F4.1°C 24.0°F-4.4°C 54% 2.3 mph WSW3.7 kmh WSW 4.6 mph7.4 kmh 30.09 in1019.0 mb - 0.00 in0.0 mm 0.00 in0.0 mm
01:30 PM 39.6°F4.2°C 24.7°F-4.1°C 55% 6.9 mph NW11.1 kmh NW 11.5 mph18.5 kmh 30.08 in1018.6 mb - 0.00 in0.0 mm 0.00 in0.0 mm
01:40 PM 39.8°F4.3°C 24.5°F-4.2°C 54% 3.5 mph N5.6 kmh N 3.5 mph5.6 kmh 30.08 in1018.6 mb - 0.00 in0.0 mm 0.00 in0.0 mm
01:50 PM 40.3°F4.6°C 26.3°F-3.2°C 57% 4.6 mph NNW7.4 kmh NNW 5.8 mph9.3 kmh 30.08 in1018.6 mb - 0.00 in0.0 mm 0.00 in0.0 mm
02:00 PM 40.8°F4.9°C 26.3°F-3.2°C 56% 4.6 mph NW7.4 kmh NW 11.5 mph18.5 kmh 30.07 in1018.3 mb - 0.00 in0.0 mm 0.00 in0.0 mm
02:10 PM 41.1°F5.1°C 24.8°F-4.0°C 52% 5.8 mph NNW9.3 kmh NNW 9.2 mph14.8 kmh 30.07 in1018.3 mb - 0.00 in0.0 mm 0.00 in0.0 mm
02:20 PM 41.0°F5.0°C 25.2°F-3.8°C 53% 10.4 mph N16.7 kmh N 11.5 mph18.5 kmh 30.06 in1017.9 mb - 0.00 in0.0 mm 0.00 in0.0 mm
02:30 PM 41.2°F5.1°C 23.9°F-4.5°C 50% 3.5 mph N5.6 kmh N 3.5 mph5.6 kmh 30.06 in1017.9 mb - 0.00 in0.0 mm 0.00 in0.0 mm
02:40 PM 41.5°F5.3°C 25.2°F-3.8°C 52% 4.6 mph N7.4 kmh N 11.5 mph18.5 kmh 30.06 in1017.9 mb - 0.00 in0.0 mm 0.00 in0.0 mm
02:50 PM 41.5°F5.3°C 25.6°F-3.6°C 53% 2.3 mph NW3.7 kmh NW 3.5 mph5.6 kmh 30.06 in1017.9 mb - 0.00 in0.0 mm 0.00 in0.0 mm
03:00 PM 42.0°F5.6°C 26.1°F-3.3°C 53% 8.1 mph NW13.0 kmh NW 11.5 mph18.5 kmh 30.06 in1017.9 mb - 0.00 in0.0 mm 0.00 in0.0 mm
03:10 PM 42.2°F5.7°C 25.8°F-3.4°C 52% 4.6 mph NW7.4 kmh NW 4.6 mph7.4 kmh 30.05 in1017.6 mb - 0.00 in0.0 mm 0.00 in0.0 mm
03:20 PM 42.5°F5.8°C 24.7°F-4.1°C 49% 4.6 mph WNW7.4 kmh WNW 8.1 mph13.0 kmh 30.05 in1017.6 mb - 0.00 in0.0 mm 0.00 in0.0 mm
03:30 PM 42.7°F5.9°C 27.2°F-2.7°C 54% 3.5 mph WSW5.6 kmh WSW 3.5 mph5.6 kmh 30.05 in1017.6 mb - 0.00 in0.0 mm 0.00 in0.0 mm
03:40 PM 42.8°F6.0°C 26.4°F-3.1°C 52% 3.5 mph N5.6 kmh N 8.1 mph13.0 kmh 30.05 in1017.6 mb - 0.00 in0.0 mm 0.00 in0.0 mm
03:50 PM 43.1°F6.2°C 26.2°F-3.2°C 51% 4.6 mph NNW7.4 kmh NNW 4.6 mph7.4 kmh 30.05 in1017.6 mb - 0.00 in0.0 mm 0.00 in0.0 mm
04:00 PM 43.2°F6.2°C 25.8°F-3.4°C 50% 5.8 mph NNE9.3 kmh NNE 6.9 mph11.1 kmh 30.04 in1017.3 mb - 0.00 in0.0 mm 0.00 in0.0 mm
04:10 PM 43.4°F6.3°C 26.9°F-2.8°C 52% 3.5 mph N5.6 kmh N 4.6 mph7.4 kmh 30.04 in1017.3 mb - 0.00 in0.0 mm 0.00 in0.0 mm
04:20 PM 44.0°F6.7°C 26.5°F-3.1°C 50% 6.9 mph WNW11.1 kmh WNW 8.1 mph13.0 kmh 30.04 in1017.3 mb - 0.00 in0.0 mm 0.00 in0.0 mm
04:30 PM 43.9°F6.6°C 26.0°F-3.3°C 49% 9.2 mph W14.8 kmh W 10.4 mph16.7 kmh 30.04 in1017.3 mb - 0.00 in0.0 mm 0.00 in0.0 mm
04:40 PM 44.0°F6.7°C 27.0°F-2.8°C 51% 4.6 mph NW7.4 kmh NW 6.9 mph11.1 kmh 30.04 in1017.3 mb - 0.00 in0.0 mm 0.00 in0.0 mm
04:50 PM 43.9°F6.6°C 26.0°F-3.3°C 49% 3.5 mph W5.6 kmh W 5.8 mph9.3 kmh 30.04 in1017.3 mb - 0.00 in0.0 mm 0.00 in0.0 mm
05:00 PM 43.8°F6.6°C 25.9°F-3.4°C 49% 6.9 mph NNW11.1 kmh NNW 10.4 mph16.7 kmh 30.04 in1017.3 mb - 0.00 in0.0 mm 0.00 in0.0 mm
05:10 PM 43.7°F6.5°C 25.3°F-3.7°C 48% 8.1 mph NW13.0 kmh NW 9.2 mph14.8 kmh 30.05 in1017.6 mb - 0.00 in0.0 mm 0.00 in0.0 mm
05:20 PM 43.6°F6.4°C 25.7°F-3.5°C 49% 3.5 mph WNW5.6 kmh WNW 3.5 mph5.6 kmh 30.05 in1017.6 mb - 0.00 in0.0 mm 0.00 in0.0 mm
05:30 PM 43.6°F6.4°C 25.7°F-3.5°C 49% 5.8 mph NW9.3 kmh NW 11.5 mph18.5 kmh 30.05 in1017.6 mb - 0.00 in0.0 mm 0.00 in0.0 mm
05:40 PM 43.6°F6.4°C 24.7°F-4.1°C 47% 3.5 mph NW5.6 kmh NW 3.5 mph5.6 kmh 30.05 in1017.6 mb - 0.00 in0.0 mm 0.00 in0.0 mm
05:50 PM 43.6°F6.4°C 25.7°F-3.5°C 49% 4.6 mph WNW7.4 kmh WNW 8.1 mph13.0 kmh 30.05 in1017.6 mb - 0.00 in0.0 mm 0.00 in0.0 mm
06:00 PM 43.1°F6.2°C 24.2°F-4.3°C 47% 3.5 mph NW5.6 kmh NW 3.5 mph5.6 kmh 30.05 in1017.6 mb - 0.00 in0.0 mm 0.00 in0.0 mm
06:20 PM 42.6°F5.9°C 26.2°F-3.2°C 52% 4.6 mph W7.4 kmh W 9.2 mph14.8 kmh 30.05 in1017.6 mb - 0.00 in0.0 mm 0.00 in0.0 mm
09:00 PM 33.5°F0.8°C 23.0°F-5.0°C 65% 1.2 mph WSW1.9 kmh WSW 2.3 mph3.7 kmh 30.07 in1018.3 mb - 0.00 in0.0 mm 0.00 in0.0 mm
09:10 PM 33.0°F0.6°C 22.5°F-5.3°C 65% 1.2 mph WSW1.9 kmh WSW 1.2 mph1.9 kmh 30.07 in1018.3 mb - 0.00 in0.0 mm 0.00 in0.0 mm
09:20 PM 32.7°F0.4°C 22.2°F-5.4°C 65% 1.2 mph WSW1.9 kmh WSW 2.3 mph3.7 kmh 30.07 in1018.3 mb - 0.00 in0.0 mm 0.00 in0.0 mm
09:30 PM 32.6°F0.3°C 22.1°F-5.5°C 65% 1.2 mph WSW1.9 kmh WSW 1.2 mph1.9 kmh 30.06 in1017.9 mb - 0.00 in0.0 mm 0.00 in0.0 mm
09:40 PM 32.2°F0.1°C 22.1°F-5.5°C 66% Calm Calm 1.2 mph1.9 kmh 30.06 in1017.9 mb - 0.00 in0.0 mm 0.00 in0.0 mm
09:50 PM 31.8°F-0.1°C 22.5°F-5.3°C 68% 1.2 mph WSW1.9 kmh WSW 2.3 mph3.7 kmh 30.07 in1018.3 mb - 0.00 in0.0 mm 0.00 in0.0 mm
10:00 PM 31.4°F-0.3°C 22.0°F-5.6°C 68% 1.2 mph WSW1.9 kmh WSW 2.3 mph3.7 kmh 30.06 in1017.9 mb - 0.00 in0.0 mm 0.00 in0.0 mm
10:10 PM 31.0°F-0.6°C 22.4°F-5.3°C 70% 1.2 mph NE1.9 kmh NE 1.2 mph1.9 kmh 30.07 in1018.3 mb - 0.00 in0.0 mm 0.00 in0.0 mm
10:20 PM 31.0°F-0.6°C 22.7°F-5.2°C 71% 1.2 mph NE1.9 kmh NE 1.2 mph1.9 kmh 30.07 in1018.3 mb - 0.00 in0.0 mm 0.00 in0.0 mm
10:30 PM 30.6°F-0.8°C 22.9°F-5.1°C 73% 1.2 mph N1.9 kmh N 3.5 mph5.6 kmh 30.08 in1018.6 mb - 0.00 in0.0 mm 0.00 in0.0 mm
10:40 PM 30.3°F-0.9°C 22.7°F-5.2°C 73% 2.3 mph N3.7 kmh N 3.5 mph5.6 kmh 30.08 in1018.6 mb - 0.00 in0.0 mm 0.00 in0.0 mm
10:50 PM 30.3°F-0.9°C 22.7°F-5.2°C 73% 1.2 mph N1.9 kmh N 2.3 mph3.7 kmh 30.08 in1018.6 mb - 0.00 in0.0 mm 0.00 in0.0 mm
11:00 PM 30.4°F-0.9°C 22.8°F-5.1°C 73% 2.3 mph N3.7 kmh N 3.5 mph5.6 kmh 30.08 in1018.6 mb - 0.00 in0.0 mm 0.00 in0.0 mm
11:10 PM 30.4°F-0.9°C 22.4°F-5.3°C 72% 3.5 mph N5.6 kmh N 3.5 mph5.6 kmh 30.07 in1018.3 mb - 0.00 in0.0 mm 0.00 in0.0 mm
11:20 PM 31.2°F-0.4°C 22.5°F-5.3°C 70% 3.5 mph N5.6 kmh N 4.6 mph7.4 kmh 30.07 in1018.3 mb - 0.00 in0.0 mm 0.00 in0.0 mm
11:30 PM 32.1°F0.1°C 22.8°F-5.1°C 68% 2.3 mph NNE3.7 kmh NNE 3.5 mph5.6 kmh 30.08 in1018.6 mb - 0.00 in0.0 mm 0.00 in0.0 mm
11:40 PM 32.6°F0.3°C 23.2°F-4.9°C 68% 2.3 mph N3.7 kmh N 3.5 mph5.6 kmh 30.07 in1018.3 mb - 0.00 in0.0 mm 0.00 in0.0 mm
11:50 PM 32.2°F0.1°C 22.8°F-5.1°C 68% 2.3 mph NNE3.7 kmh NNE 3.5 mph5.6 kmh 30.08 in1018.6 mb - 0.00 in0.0 mm 0.00 in0.0 mm